createdAt,value
2023-01-10T00:00:45.415Z,13.05
2023-01-10T00:03:31.611Z,13.18
2023-01-10T00:06:18.323Z,13.35
2023-01-10T00:09:04.589Z,14.43
2023-01-10T00:12:09.269Z,13.25
2023-01-10T00:14:55.864Z,13.63
2023-01-10T00:17:42.349Z,13.02
2023-01-10T00:20:28.631Z,14.13
2023-01-10T00:23:15.309Z,13.80
2023-01-10T00:26:01.596Z,14.05
2023-01-10T00:28:47.654Z,12.55
2023-01-10T00:31:33.953Z,13.05
2023-01-10T00:34:20.157Z,12.40
2023-01-10T00:37:07.153Z,13.73
2023-01-10T00:39:53.607Z,14.23
2023-01-10T00:42:58.460Z,12.60
2023-01-10T00:45:48.035Z,13.57
2023-01-10T00:48:35.167Z,12.30
2023-01-10T00:51:21.638Z,12.50
2023-01-10T00:54:07.875Z,10.95
2023-01-10T00:56:54.162Z,11.73
2023-01-10T00:59:40.350Z,11.73
2023-01-10T01:02:26.635Z,11.68
2023-01-10T01:05:13.267Z,11.20
2023-01-10T01:07:59.751Z,12.10
2023-01-10T01:10:46.493Z,12.52
2023-01-10T01:13:33.137Z,11.90
2023-01-10T01:16:20.078Z,12.05
2023-01-10T01:19:06.479Z,11.52
2023-01-10T01:21:52.627Z,11.70
2023-01-10T01:24:39.595Z,12.65
2023-01-10T01:27:26.425Z,11.45
2023-01-10T01:30:13.339Z,11.55
2023-01-10T01:32:59.609Z,11.80
2023-01-10T01:35:46.267Z,11.00
2023-01-10T01:38:32.688Z,11.57
2023-01-10T01:41:37.390Z,12.73
2023-01-10T01:44:24.212Z,11.02
2023-01-10T01:47:17.227Z,11.20
2023-01-10T01:50:03.708Z,10.23
2023-01-10T01:52:51.860Z,11.13
2023-01-10T01:55:39.773Z,11.10
2023-01-10T01:58:28.439Z,11.05
2023-01-10T02:01:16.287Z,10.98
2023-01-10T02:04:09.675Z,11.45
2023-01-10T02:06:57.109Z,10.75
2023-01-10T02:09:43.574Z,11.32
2023-01-10T02:12:31.672Z,10.88
2023-01-10T02:15:18.664Z,10.85
2023-01-10T02:18:05.516Z,10.75
2023-01-10T02:20:54.747Z,10.43
2023-01-10T02:23:40.979Z,10.48
2023-01-10T02:26:27.354Z,10.23
2023-01-10T02:29:29.222Z,10.45
2023-01-10T02:32:39.747Z,11.15
2023-01-10T02:35:30.604Z,10.73
2023-01-10T02:38:16.990Z,10.50
2023-01-10T02:41:08.131Z,11.00
2023-01-10T02:43:57.047Z,11.18
2023-01-10T02:46:44.881Z,11.02
2023-01-10T02:49:31.131Z,10.52
2023-01-10T02:52:29.571Z,10.20
2023-01-10T02:55:16.264Z,9.82
2023-01-10T02:58:21.839Z,10.98
2023-01-10T03:01:08.172Z,10.35
2023-01-10T03:04:13.115Z,10.07
2023-01-10T03:07:05.473Z,10.27
2023-01-10T03:09:52.019Z,9.80
2023-01-10T03:12:44.264Z,10.45
2023-01-10T03:15:32.635Z,10.73
2023-01-10T03:18:23.733Z,11.10
2023-01-10T03:21:11.872Z,11.10
2023-01-10T03:24:02.386Z,10.40
2023-01-10T03:27:03.107Z,11.13
2023-01-10T03:30:07.936Z,11.65
2023-01-10T03:32:55.567Z,11.30
2023-01-10T03:35:54.312Z,11.25
2023-01-10T03:38:51.483Z,11.40
2023-01-10T03:42:01.259Z,11.88
2023-01-10T03:44:51.353Z,12.30
2023-01-10T03:47:42.557Z,11.82
2023-01-10T03:50:29.154Z,11.65
2023-01-10T03:53:15.883Z,12.77
2023-01-10T03:56:02.968Z,12.07
2023-01-10T03:58:49.746Z,11.63
2023-01-10T04:01:35.910Z,12.90
2023-01-10T04:04:22.289Z,12.73
2023-01-10T04:07:08.842Z,12.73
2023-01-10T04:09:55.264Z,12.60
2023-01-10T04:12:41.515Z,13.10
2023-01-10T04:15:28.021Z,12.55
2023-01-10T04:18:16.012Z,12.80
2023-01-10T04:21:02.532Z,11.75
2023-01-10T04:23:49.025Z,12.05
2023-01-10T04:26:35.368Z,13.07
2023-01-10T04:29:21.572Z,13.38
2023-01-10T04:32:07.805Z,12.77
2023-01-10T04:34:54.158Z,12.68
2023-01-10T04:37:40.514Z,13.00
2023-01-10T04:40:26.949Z,13.40
2023-01-10T04:43:13.398Z,13.02
2023-01-10T04:45:59.763Z,12.48
2023-01-10T04:48:45.836Z,12.77
2023-01-10T04:51:32.179Z,12.80
2023-01-10T04:54:21.152Z,13.07
2023-01-10T04:57:07.800Z,12.50
2023-01-10T04:59:53.992Z,12.93
2023-01-10T05:02:44.243Z,12.95
2023-01-10T05:05:32.916Z,12.75
2023-01-10T05:08:20.440Z,12.65
2023-01-10T05:11:06.796Z,14.00
2023-01-10T05:13:53.048Z,13.07
2023-01-10T05:16:39.595Z,13.70
2023-01-10T05:19:25.778Z,13.63
2023-01-10T05:22:11.874Z,13.40
2023-01-10T05:24:58.097Z,14.07
2023-01-10T05:27:44.369Z,14.07
2023-01-10T05:30:30.697Z,13.88
2023-01-10T05:33:16.887Z,14.00
2023-01-10T05:36:04.546Z,15.55
2023-01-10T05:38:50.695Z,14.70
2023-01-10T05:41:36.746Z,14.27
2023-01-10T05:44:22.922Z,14.68
2023-01-10T05:47:09.414Z,14.75
2023-01-10T05:49:55.555Z,13.75
2023-01-10T05:52:41.822Z,14.02
2023-01-10T05:55:27.938Z,14.15
2023-01-10T05:58:39.784Z,14.65
2023-01-10T06:01:26.076Z,13.82
2023-01-10T06:04:12.208Z,14.80
2023-01-10T06:06:58.290Z,14.40
2023-01-10T06:09:44.926Z,15.02
2023-01-10T06:12:31.371Z,14.65
2023-01-10T06:15:18.153Z,14.75
2023-01-10T06:18:04.711Z,15.27
2023-01-10T06:20:51.764Z,15.52
2023-01-10T06:23:37.889Z,15.65
2023-01-10T06:26:24.202Z,14.43
2023-01-10T06:29:10.620Z,13.90
2023-01-10T06:31:57.104Z,14.63
2023-01-10T06:34:43.305Z,14.35
2023-01-10T06:37:29.766Z,14.55
2023-01-10T06:40:16.303Z,14.15
2023-01-10T06:43:02.455Z,14.32
2023-01-10T06:45:48.786Z,15.63
2023-01-10T06:48:35.063Z,15.82
2023-01-10T06:51:21.267Z,15.23
2023-01-10T06:54:07.418Z,15.55
2023-01-10T06:56:53.636Z,17.33
2023-01-10T06:59:39.731Z,16.15
2023-01-10T07:02:25.842Z,16.15
2023-01-10T07:05:11.950Z,16.35
2023-01-10T07:07:59.011Z,16.73
2023-01-10T07:10:45.869Z,16.60
2023-01-10T07:13:32.322Z,16.92
2023-01-10T07:16:18.716Z,17.25
2023-01-10T07:19:05.199Z,17.38
2023-01-10T07:21:51.431Z,16.45
2023-01-10T07:24:37.525Z,16.83
2023-01-10T07:27:23.936Z,17.65
2023-01-10T07:30:11.906Z,17.45
2023-01-10T07:33:01.404Z,17.35
2023-01-10T07:35:47.749Z,18.70
2023-01-10T07:38:34.701Z,18.02
2023-01-10T07:41:20.916Z,19.25
2023-01-10T07:44:07.412Z,19.85
2023-01-10T07:46:53.782Z,19.38
2023-01-10T07:49:39.861Z,19.33
2023-01-10T07:52:26.134Z,18.80
2023-01-10T07:55:12.880Z,19.50
2023-01-10T07:57:59.094Z,19.45
2023-01-10T08:00:46.311Z,20.85
2023-01-10T08:03:33.453Z,19.98
2023-01-10T08:06:19.906Z,18.42
2023-01-10T08:09:06.787Z,18.83
2023-01-10T08:11:54.046Z,18.02
2023-01-10T08:14:40.788Z,20.35
2023-01-10T08:17:26.986Z,19.20
2023-01-10T08:20:13.334Z,19.02
2023-01-10T08:22:59.755Z,18.48
2023-01-10T08:25:47.065Z,18.73
2023-01-10T08:28:34.040Z,17.65
2023-01-10T08:31:20.199Z,18.25
2023-01-10T08:34:07.026Z,18.90
2023-01-10T08:36:53.747Z,18.38
2023-01-10T08:39:40.097Z,18.95
2023-01-10T08:42:26.572Z,17.77
2023-01-10T08:45:12.993Z,19.58
2023-01-10T08:47:59.392Z,17.33
2023-01-10T08:50:46.738Z,17.98
2023-01-10T08:53:32.860Z,17.50
2023-01-10T08:56:19.134Z,17.65
2023-01-10T08:59:05.530Z,17.73
2023-01-10T09:01:51.752Z,17.77
2023-01-10T09:04:38.232Z,19.10
2023-01-10T09:07:24.352Z,17.35
2023-01-10T09:10:11.455Z,17.23
2023-01-10T09:13:01.894Z,17.10
2023-01-10T09:15:48.410Z,18.13
2023-01-10T09:18:34.839Z,16.88
2023-01-10T09:21:20.925Z,16.60
2023-01-10T09:24:07.574Z,16.60
2023-01-10T09:26:54.147Z,16.38
2023-01-10T09:29:40.340Z,15.88
2023-01-10T09:32:26.651Z,17.45
2023-01-10T09:35:13.169Z,17.17
2023-01-10T09:38:01.287Z,17.30
2023-01-10T09:41:12.073Z,16.52
2023-01-10T09:44:04.614Z,16.42
2023-01-10T09:47:21.580Z,16.40
2023-01-10T09:50:18.980Z,16.15
2023-01-10T09:53:10.370Z,15.57
2023-01-10T09:55:58.191Z,15.80
2023-01-10T09:58:45.032Z,15.85
2023-01-10T10:01:37.060Z,15.23
2023-01-10T10:04:41.774Z,14.60
2023-01-10T10:07:28.018Z,14.65
2023-01-10T10:10:25.340Z,15.25
2023-01-10T10:13:27.706Z,14.73
2023-01-10T10:16:17.218Z,15.07
2023-01-10T10:19:12.939Z,15.18
2023-01-10T10:22:10.650Z,14.57
2023-01-10T10:25:16.034Z,15.35
2023-01-10T10:28:11.647Z,15.38
2023-01-10T10:30:58.179Z,15.20
2023-01-10T10:33:50.507Z,14.48
2023-01-10T10:36:45.996Z,15.27
2023-01-10T10:39:37.733Z,16.05
2023-01-10T10:42:29.444Z,15.70
2023-01-10T10:45:40.455Z,15.85
2023-01-10T10:48:31.193Z,16.23
2023-01-10T10:51:33.010Z,16.02
2023-01-10T10:54:21.118Z,16.10
2023-01-10T10:57:07.916Z,16.17
2023-01-10T10:59:54.481Z,16.63
2023-01-10T11:02:47.171Z,16.65
2023-01-10T11:05:36.899Z,16.63
2023-01-10T11:08:25.028Z,16.48
2023-01-10T11:11:29.967Z,16.75
2023-01-10T11:14:17.040Z,17.05
2023-01-10T11:17:24.420Z,16.42
2023-01-10T11:20:18.189Z,17.27
2023-01-10T11:23:12.790Z,18.17
2023-01-10T11:25:59.617Z,17.52
2023-01-10T11:28:46.319Z,17.33
2023-01-10T11:31:32.798Z,18.58
2023-01-10T11:34:22.306Z,18.63
2023-01-10T11:37:18.988Z,17.10
2023-01-10T11:40:16.075Z,17.92
2023-01-10T11:43:20.055Z,18.48
2023-01-10T11:46:15.738Z,18.27
2023-01-10T11:49:06.781Z,18.60
2023-01-10T11:51:56.653Z,19.30
2023-01-10T11:54:43.791Z,18.30
2023-01-10T11:57:31.991Z,18.90
2023-01-10T12:00:18.582Z,19.55
2023-01-10T12:03:15.762Z,19.27
2023-01-10T12:06:17.017Z,19.13
2023-01-10T12:09:03.015Z,18.52
2023-01-10T12:12:02.113Z,20.95
2023-01-10T12:14:49.088Z,20.30
2023-01-10T12:17:37.106Z,20.40
2023-01-10T12:20:24.167Z,20.65
2023-01-10T12:23:14.377Z,20.42
2023-01-10T12:26:11.414Z,20.25
2023-01-10T12:29:00.839Z,20.25
2023-01-10T12:31:47.084Z,20.33
2023-01-10T12:34:47.541Z,20.35
2023-01-10T12:37:48.849Z,21.40
2023-01-10T12:40:48.223Z,20.77
2023-01-10T12:43:56.149Z,20.35
2023-01-10T12:47:06.704Z,21.90
2023-01-10T12:50:04.240Z,21.95
2023-01-10T12:52:56.648Z,21.60
2023-01-10T12:55:44.128Z,21.35
2023-01-10T12:58:30.904Z,21.85
2023-01-10T13:01:23.470Z,20.88
2023-01-10T13:04:11.990Z,21.90
2023-01-10T13:06:58.944Z,22.50
2023-01-10T13:09:45.650Z,22.00
2023-01-10T13:12:38.087Z,23.33
2023-01-10T13:15:30.128Z,22.10
2023-01-10T13:18:24.308Z,23.20
2023-01-10T13:21:14.111Z,21.83
2023-01-10T13:24:05.040Z,22.10
2023-01-10T13:26:56.655Z,21.48
2023-01-10T13:29:43.443Z,21.42
2023-01-10T13:32:31.864Z,24.35
2023-01-10T13:35:20.047Z,22.92
2023-01-10T13:38:06.642Z,24.08
2023-01-10T13:41:00.828Z,24.00
2023-01-10T13:44:13.587Z,22.67
2023-01-10T13:46:59.576Z,24.48
2023-01-10T13:49:46.042Z,21.55
2023-01-10T13:52:33.350Z,22.60
2023-01-10T13:55:38.596Z,24.08
2023-01-10T13:58:44.795Z,23.25
2023-01-10T14:01:54.044Z,24.25
2023-01-10T14:04:46.055Z,24.27
2023-01-10T14:07:35.766Z,23.40
2023-01-10T14:10:26.231Z,24.10
2023-01-10T14:13:18.617Z,22.90
2023-01-10T14:16:07.220Z,25.02
2023-01-10T14:18:54.284Z,24.23
2023-01-10T14:21:45.610Z,23.27
2023-01-10T14:24:44.588Z,23.25
2023-01-10T14:27:35.556Z,25.63
2023-01-10T14:30:32.926Z,27.42
2023-01-10T14:33:21.478Z,24.35
2023-01-10T14:36:10.380Z,23.80
2023-01-10T14:38:58.321Z,24.65
2023-01-10T14:41:51.082Z,24.23
2023-01-10T14:44:40.600Z,23.75
2023-01-10T14:47:34.453Z,24.58
2023-01-10T14:50:28.847Z,25.15
2023-01-10T14:53:28.661Z,24.25
2023-01-10T14:56:23.105Z,24.45
2023-01-10T14:59:29.399Z,25.33
2023-01-10T15:02:29.711Z,27.05
2023-01-10T15:05:19.948Z,26.27
2023-01-10T15:08:38.848Z,24.98
2023-01-10T15:11:26.258Z,26.27
2023-01-10T15:14:17.642Z,26.27
2023-01-10T15:17:06.454Z,25.40
2023-01-10T15:19:53.522Z,25.23
2023-01-10T15:22:40.237Z,25.65
2023-01-10T15:25:32.839Z,25.55
2023-01-10T15:28:22.406Z,25.27
2023-01-10T15:31:11.489Z,26.10
2023-01-10T15:33:59.314Z,26.30
2023-01-10T15:36:53.268Z,26.27
2023-01-10T15:39:41.436Z,27.40
2023-01-10T15:42:28.016Z,27.42
2023-01-10T15:45:19.064Z,26.85
2023-01-10T15:48:05.438Z,26.20
2023-01-10T15:51:15.163Z,26.73
2023-01-10T15:54:04.845Z,26.75
2023-01-10T15:56:53.075Z,27.70
2023-01-10T15:59:47.356Z,26.52
2023-01-10T16:02:34.377Z,26.60
2023-01-10T16:05:35.809Z,26.42
2023-01-10T16:08:25.344Z,26.35
2023-01-10T16:11:38.602Z,25.15
2023-01-10T16:14:25.655Z,25.50
2023-01-10T16:17:12.737Z,26.13
2023-01-10T16:19:58.938Z,25.88
2023-01-10T16:22:46.516Z,26.27
2023-01-10T16:25:34.710Z,25.83
2023-01-10T16:28:21.743Z,27.33
2023-01-10T16:31:11.344Z,26.98
2023-01-10T16:33:57.568Z,26.52
2023-01-10T16:36:44.656Z,26.50
2023-01-10T16:39:31.308Z,26.55
2023-01-10T16:42:36.141Z,27.10
2023-01-10T16:45:23.566Z,28.63
2023-01-10T16:48:10.033Z,27.60
2023-01-10T16:50:56.695Z,27.00
2023-01-10T16:53:42.958Z,26.38
2023-01-10T16:56:30.737Z,26.73
2023-01-10T16:59:18.383Z,26.83
2023-01-10T17:02:11.041Z,26.30
2023-01-10T17:04:59.892Z,27.95
2023-01-10T17:07:47.126Z,26.75
2023-01-10T17:10:36.244Z,26.98
2023-01-10T17:13:27.817Z,27.83
2023-01-10T17:16:18.654Z,28.05
2023-01-10T17:19:06.941Z,27.67
2023-01-10T17:21:53.604Z,28.13
2023-01-10T17:24:40.001Z,27.05
2023-01-10T17:27:27.436Z,27.48
2023-01-10T17:30:14.447Z,27.27
2023-01-10T17:33:02.626Z,27.58
2023-01-10T17:35:49.228Z,26.58
2023-01-10T17:38:36.617Z,27.42
2023-01-10T17:41:23.096Z,28.33
2023-01-10T17:44:09.682Z,27.70
2023-01-10T17:46:57.843Z,29.02
2023-01-10T17:49:44.377Z,28.30
2023-01-10T17:52:31.323Z,28.83
2023-01-10T17:55:18.698Z,28.60
2023-01-10T17:58:05.558Z,28.13
2023-01-10T18:00:52.100Z,28.52
2023-01-10T18:03:38.751Z,29.95
2023-01-10T18:06:27.975Z,28.83
2023-01-10T18:09:15.375Z,30.40
2023-01-10T18:12:01.989Z,28.95
2023-01-10T18:14:50.449Z,28.85
2023-01-10T18:17:36.951Z,28.33
2023-01-10T18:20:23.363Z,28.52
2023-01-10T18:23:23.278Z,29.88
2023-01-10T18:26:11.398Z,30.45
2023-01-10T18:29:00.001Z,30.05
2023-01-10T18:31:46.398Z,31.23
2023-01-10T18:34:33.518Z,30.90
2023-01-10T18:37:20.157Z,29.77
2023-01-10T18:40:07.002Z,28.33
2023-01-10T18:43:01.495Z,29.25
2023-01-10T18:45:48.610Z,29.35
2023-01-10T18:48:34.921Z,30.15
2023-01-10T18:51:23.051Z,29.90
2023-01-10T18:54:09.738Z,30.23
2023-01-10T18:56:56.296Z,29.55
2023-01-10T18:59:42.795Z,29.15
2023-01-10T19:02:30.903Z,29.80
2023-01-10T19:05:17.621Z,29.80
2023-01-10T19:08:03.882Z,30.13
2023-01-10T19:11:12.010Z,29.20
2023-01-10T19:13:58.923Z,29.13
2023-01-10T19:16:45.307Z,30.00
2023-01-10T19:19:31.566Z,29.40
2023-01-10T19:22:20.627Z,29.80
2023-01-10T19:25:07.883Z,29.65
2023-01-10T19:27:54.841Z,29.33
2023-01-10T19:30:41.546Z,29.00
2023-01-10T19:33:28.178Z,29.05
2023-01-10T19:36:15.326Z,28.42
2023-01-10T19:39:01.812Z,29.27
2023-01-10T19:41:48.424Z,27.55
2023-01-10T19:44:34.887Z,28.63
2023-01-10T19:47:21.129Z,28.52
2023-01-10T19:50:07.764Z,28.42
2023-01-10T19:52:55.025Z,28.98
2023-01-10T19:55:41.509Z,27.73
2023-01-10T19:58:27.980Z,28.73
2023-01-10T20:01:15.338Z,28.27
2023-01-10T20:04:03.040Z,28.25
2023-01-10T20:06:49.536Z,29.00
2023-01-10T20:09:38.467Z,27.75
2023-01-10T20:12:25.971Z,27.48
2023-01-10T20:15:12.722Z,29.58
2023-01-10T20:17:59.759Z,27.83
2023-01-10T20:20:46.638Z,27.85
2023-01-10T20:23:33.613Z,28.08
2023-01-10T20:26:26.662Z,27.90
2023-01-10T20:29:12.971Z,27.73
2023-01-10T20:32:01.276Z,27.35
2023-01-10T20:34:52.102Z,26.33
2023-01-10T20:37:39.226Z,27.17
2023-01-10T20:40:26.774Z,27.38
2023-01-10T20:43:15.549Z,27.60
2023-01-10T20:46:07.076Z,28.10
2023-01-10T20:48:54.682Z,29.05
2023-01-10T20:51:43.857Z,27.65
2023-01-10T20:54:31.071Z,27.92
2023-01-10T20:57:17.697Z,27.73
2023-01-10T21:00:04.620Z,28.88
2023-01-10T21:02:51.595Z,28.45
2023-01-10T21:05:39.147Z,29.83
2023-01-10T21:08:26.062Z,28.40
2023-01-10T21:11:14.090Z,29.05
2023-01-10T21:14:00.453Z,28.67
2023-01-10T21:16:49.966Z,30.05
2023-01-10T21:19:36.393Z,28.65
2023-01-10T21:22:22.829Z,28.67
2023-01-10T21:25:10.114Z,28.27
2023-01-10T21:27:57.342Z,29.42
2023-01-10T21:30:43.529Z,29.00
2023-01-10T21:33:30.570Z,28.45
2023-01-10T21:36:17.615Z,28.60
2023-01-10T21:39:03.789Z,28.23
2023-01-10T21:42:09.131Z,28.15
2023-01-10T21:44:56.119Z,27.92
2023-01-10T21:47:42.534Z,27.63
2023-01-10T21:50:33.863Z,28.10
2023-01-10T21:53:21.163Z,29.40
2023-01-10T21:56:07.867Z,28.60
2023-01-10T21:58:54.316Z,29.38
2023-01-10T22:01:40.498Z,28.48
2023-01-10T22:04:26.629Z,28.55
2023-01-10T22:07:12.887Z,29.50
2023-01-10T22:09:59.462Z,28.42
2023-01-10T22:12:45.855Z,28.33
2023-01-10T22:15:32.337Z,28.33
2023-01-10T22:18:18.563Z,28.80
2023-01-10T22:21:04.744Z,28.45
2023-01-10T22:23:51.107Z,28.30
2023-01-10T22:26:37.424Z,29.60
2023-01-10T22:29:23.956Z,29.30
2023-01-10T22:32:10.679Z,29.42
2023-01-10T22:34:57.076Z,28.17
2023-01-10T22:37:43.198Z,28.98
2023-01-10T22:40:29.482Z,29.27
2023-01-10T22:43:15.736Z,29.58
2023-01-10T22:46:02.025Z,28.30
2023-01-10T22:48:48.489Z,29.60
2023-01-10T22:51:35.786Z,28.33
2023-01-10T22:54:22.051Z,28.80
2023-01-10T22:57:08.842Z,27.25
2023-01-10T22:59:55.467Z,29.50
2023-01-10T23:02:41.789Z,28.23
2023-01-10T23:05:28.125Z,28.00
2023-01-10T23:08:51.885Z,29.30
2023-01-10T23:11:56.989Z,27.95
2023-01-10T23:14:43.667Z,28.15
2023-01-10T23:17:29.958Z,27.58
2023-01-10T23:20:17.655Z,27.83
2023-01-10T23:23:04.147Z,28.30
2023-01-10T23:26:01.768Z,27.08
2023-01-10T23:28:49.267Z,27.38
2023-01-10T23:31:35.671Z,26.75
2023-01-10T23:34:22.391Z,27.60
2023-01-10T23:37:08.530Z,25.75
2023-01-10T23:39:55.587Z,25.55
2023-01-10T23:42:41.795Z,27.05
2023-01-10T23:45:28.346Z,25.23
2023-01-10T23:48:14.536Z,25.88
2023-01-10T23:51:00.872Z,24.88
2023-01-10T23:53:47.308Z,25.92
2023-01-10T23:56:33.697Z,26.15
2023-01-10T23:59:20.773Z,25.13
